createdAt,value
2018-05-01T00:02:02.518Z,12.30
2018-05-01T00:04:30.039Z,12.30
2018-05-01T00:06:57.567Z,12.30
2018-05-01T00:09:25.863Z,12.40
2018-05-01T00:11:54.135Z,12.40
2018-05-01T00:14:22.411Z,12.40
2018-05-01T00:16:50.716Z,12.40
2018-05-01T00:19:18.559Z,12.40
2018-05-01T00:21:47.009Z,12.40
2018-05-01T00:24:14.550Z,12.30
2018-05-01T00:26:42.059Z,12.20
2018-05-01T00:29:09.599Z,12.10
2018-05-01T00:31:37.142Z,12.10
2018-05-01T00:34:04.684Z,12.00
2018-05-01T00:36:32.220Z,12.10
2018-05-01T00:38:59.767Z,12.00
2018-05-01T00:41:27.905Z,12.00
2018-05-01T00:43:55.478Z,12.00
2018-05-01T00:46:23.777Z,12.10
2018-05-01T00:48:51.335Z,12.00
2018-05-01T00:51:18.863Z,12.10
2018-05-01T00:53:46.717Z,12.10
2018-05-01T00:56:14.296Z,12.20
2018-05-01T00:58:42.623Z,12.10
2018-05-01T01:01:10.129Z,12.10
2018-05-01T01:03:38.522Z,11.90
2018-05-01T01:06:06.007Z,11.90
2018-05-01T01:08:33.544Z,11.90
2018-05-01T01:11:01.075Z,11.90
2018-05-01T01:13:29.399Z,11.90
2018-05-01T01:15:58.988Z,11.90
2018-05-01T01:18:26.543Z,11.80
2018-05-01T01:20:54.069Z,11.80
2018-05-01T01:23:21.595Z,11.80
2018-05-01T01:25:49.159Z,11.70
2018-05-01T01:28:16.699Z,11.70
2018-05-01T01:30:44.251Z,11.70
2018-05-01T01:33:11.759Z,11.70
2018-05-01T01:35:38.810Z,11.70
2018-05-01T01:38:06.621Z,11.70
2018-05-01T01:40:33.666Z,11.70
2018-05-01T01:43:00.693Z,11.70
2018-05-01T01:45:27.745Z,11.70
2018-05-01T01:47:54.806Z,11.60
2018-05-01T01:50:21.863Z,11.60
2018-05-01T01:52:48.918Z,11.60
2018-05-01T01:55:15.968Z,11.60
2018-05-01T01:57:42.996Z,11.60
2018-05-01T02:00:10.055Z,11.50
2018-05-01T02:02:37.089Z,11.50
2018-05-01T02:05:04.145Z,11.60
2018-05-01T02:07:31.186Z,11.50
2018-05-01T02:09:58.259Z,11.50
2018-05-01T02:12:25.310Z,11.40
2018-05-01T02:14:52.386Z,11.30
2018-05-01T02:17:19.401Z,11.30
2018-05-01T02:19:46.427Z,11.10
2018-05-01T02:22:13.482Z,11.00
2018-05-01T02:24:40.522Z,10.90
2018-05-01T02:27:07.583Z,10.80
2018-05-01T02:29:34.634Z,10.80
2018-05-01T02:32:01.690Z,10.80
2018-05-01T02:34:28.798Z,10.90
2018-05-01T02:36:55.828Z,11.00
2018-05-01T02:39:22.868Z,11.10
2018-05-01T02:41:50.662Z,11.20
2018-05-01T02:44:17.703Z,11.10
2018-05-01T02:46:44.732Z,11.20
2018-05-01T02:49:11.799Z,11.10
2018-05-01T02:51:38.837Z,11.20
2018-05-01T02:54:05.886Z,11.30
2018-05-01T02:56:32.944Z,11.30
2018-05-01T02:59:00.011Z,11.30
2018-05-01T03:01:27.111Z,11.40
2018-05-01T03:03:55.019Z,11.30
2018-05-01T03:06:22.054Z,11.30
2018-05-01T03:08:49.058Z,11.30
2018-05-01T03:11:16.941Z,11.30
2018-05-01T03:13:43.956Z,11.30
2018-05-01T03:16:10.970Z,11.30
2018-05-01T03:18:38.035Z,11.10
2018-05-01T03:21:05.087Z,11.10
2018-05-01T03:23:32.114Z,11.10
2018-05-01T03:25:59.142Z,11.00
2018-05-01T03:28:27.497Z,11.10
2018-05-01T03:30:54.536Z,11.10
2018-05-01T03:33:24.672Z,11.10
2018-05-01T03:35:51.734Z,11.10
2018-05-01T03:38:18.798Z,11.20
2018-05-01T03:40:46.622Z,11.20
2018-05-01T03:43:14.463Z,11.30
2018-05-01T03:45:41.565Z,11.30
2018-05-01T03:48:09.238Z,11.20
2018-05-01T03:50:36.360Z,11.20
2018-05-01T03:53:03.542Z,11.20
2018-05-01T03:55:31.473Z,11.20
2018-05-01T03:57:58.582Z,11.20
2018-05-01T04:00:25.612Z,11.20
2018-05-01T04:02:52.814Z,11.20
2018-05-01T04:05:21.258Z,11.10
2018-05-01T04:07:48.730Z,11.00
2018-05-01T04:10:17.950Z,11.00
2018-05-01T04:12:45.040Z,11.10
2018-05-01T04:15:12.045Z,11.10
2018-05-01T04:17:39.159Z,11.10
2018-05-01T04:20:06.262Z,11.20
2018-05-01T04:22:33.304Z,11.20
2018-05-01T04:25:00.337Z,11.10
2018-05-01T04:27:28.167Z,11.10
2018-05-01T04:29:55.210Z,11.00
2018-05-01T04:32:22.542Z,11.10
2018-05-01T04:34:50.185Z,11.00
2018-05-01T04:37:17.352Z,11.00
2018-05-01T04:39:44.501Z,11.00
2018-05-01T04:42:11.551Z,11.00
2018-05-01T04:44:38.572Z,11.00
2018-05-01T04:47:05.790Z,11.00
2018-05-01T04:49:32.879Z,11.00
2018-05-01T04:52:00.097Z,11.20
2018-05-01T04:54:27.236Z,11.30
2018-05-01T04:56:55.274Z,11.50
2018-05-01T04:59:23.140Z,11.70
2018-05-01T05:01:50.199Z,11.60
2018-05-01T05:04:17.273Z,11.70
2018-05-01T05:06:44.318Z,11.80
2018-05-01T05:09:11.446Z,11.90
2018-05-01T05:11:38.522Z,12.00
2018-05-01T05:14:06.795Z,12.00
2018-05-01T05:16:33.950Z,12.00
2018-05-01T05:19:01.086Z,12.10
2018-05-01T05:21:29.168Z,12.10
2018-05-01T05:23:56.359Z,12.00
2018-05-01T05:26:23.549Z,12.10
2018-05-01T05:28:50.801Z,12.00
2018-05-01T05:31:18.010Z,12.10
2018-05-01T05:33:45.188Z,12.20
2018-05-01T05:36:13.432Z,12.20
2018-05-01T05:38:40.701Z,12.20
2018-05-01T05:41:08.049Z,12.30
2018-05-01T05:43:35.098Z,12.30
2018-05-01T05:46:02.554Z,12.50
2018-05-01T05:48:29.755Z,12.60
2018-05-01T05:50:58.238Z,12.80
2018-05-01T05:53:25.421Z,12.80
2018-05-01T05:55:52.563Z,13.00
2018-05-01T05:58:19.714Z,13.20
2018-05-01T06:00:46.901Z,13.30
2018-05-01T06:03:15.709Z,13.40
2018-05-01T06:05:45.105Z,13.40
2018-05-01T06:08:12.238Z,13.20
2018-05-01T06:10:39.340Z,13.50
2018-05-01T06:13:06.724Z,13.90
2018-05-01T06:15:34.589Z,14.70
2018-05-01T06:18:01.656Z,14.60
2018-05-01T06:20:29.351Z,14.80
2018-05-01T06:22:57.164Z,14.60
2018-05-01T06:25:24.197Z,14.60
2018-05-01T06:27:51.252Z,14.60
2018-05-01T06:30:18.329Z,14.90
2018-05-01T06:32:45.396Z,14.80
2018-05-01T06:35:13.235Z,15.20
2018-05-01T06:37:40.312Z,15.20
2018-05-01T06:40:08.161Z,15.10
2018-05-01T06:42:35.196Z,15.20
2018-05-01T06:45:02.272Z,15.50
2018-05-01T06:47:29.334Z,15.70
2018-05-01T06:49:57.131Z,16.20
2018-05-01T06:52:24.179Z,16.20
2018-05-01T06:54:51.269Z,16.20
2018-05-01T06:57:18.300Z,16.00
2018-05-01T06:59:45.361Z,16.70
2018-05-01T07:02:12.443Z,17.20
2018-05-01T07:04:39.552Z,17.40
2018-05-01T07:07:06.573Z,17.00
2018-05-01T07:09:33.599Z,17.00
2018-05-01T07:12:00.683Z,17.10
2018-05-01T07:14:27.744Z,17.10
2018-05-01T07:16:54.797Z,16.90
2018-05-01T07:19:21.874Z,17.10
2018-05-01T07:21:48.911Z,17.30
2018-05-01T07:24:16.723Z,17.60
2018-05-01T07:26:43.749Z,17.60
2018-05-01T07:29:10.836Z,17.70
2018-05-01T07:31:37.867Z,17.80
2018-05-01T07:34:04.923Z,17.50
2018-05-01T07:36:31.972Z,17.30
2018-05-01T07:38:59.064Z,17.20
2018-05-01T07:41:26.204Z,16.90
2018-05-01T07:43:53.172Z,16.90
2018-05-01T07:46:20.228Z,16.90
2018-05-01T07:48:47.279Z,16.70
2018-05-01T07:51:14.414Z,16.60
2018-05-01T07:53:41.456Z,16.80
2018-05-01T07:56:08.530Z,16.90
2018-05-01T07:58:35.566Z,17.10
2018-05-01T08:01:02.597Z,16.80
2018-05-01T08:03:29.643Z,16.80
2018-05-01T08:05:56.669Z,16.90
2018-05-01T08:08:24.512Z,17.20
2018-05-01T08:10:52.589Z,17.20
2018-05-01T08:13:20.152Z,17.00
2018-05-01T08:15:47.202Z,17.60
2018-05-01T08:18:14.230Z,17.90
2018-05-01T08:20:41.299Z,18.40
2018-05-01T08:23:09.490Z,20.20
2018-05-01T08:25:37.300Z,21.30
2018-05-01T08:28:04.347Z,21.30
2018-05-01T08:30:32.012Z,21.00
2018-05-01T08:32:59.251Z,21.10
2018-05-01T08:35:27.310Z,20.50
2018-05-01T08:37:54.359Z,19.40
2018-05-01T08:40:21.391Z,19.80
2018-05-01T08:42:48.464Z,20.10
2018-05-01T08:45:15.540Z,20.40
2018-05-01T08:47:42.648Z,21.20
2018-05-01T08:50:09.697Z,21.80
2018-05-01T08:52:37.618Z,22.30
2018-05-01T08:55:05.905Z,22.70
2018-05-01T08:57:33.736Z,22.50
2018-05-01T09:00:00.836Z,22.50
2018-05-01T09:02:27.913Z,22.90
2018-05-01T09:04:55.947Z,22.40
2018-05-01T09:07:23.770Z,22.50
2018-05-01T09:09:50.934Z,22.50
2018-05-01T09:12:17.967Z,22.30
2018-05-01T09:14:45.007Z,23.70
2018-05-01T09:17:12.061Z,23.70
2018-05-01T09:19:40.841Z,23.90
2018-05-01T09:22:07.875Z,23.40
2018-05-01T09:24:34.934Z,23.10
2018-05-01T09:27:02.001Z,22.50
2018-05-01T09:29:29.042Z,23.70
2018-05-01T09:31:56.146Z,24.60
2018-05-01T09:34:23.186Z,23.90
2018-05-01T09:36:50.249Z,24.10
2018-05-01T09:39:17.369Z,24.20
2018-05-01T09:41:44.438Z,23.60
2018-05-01T09:44:11.514Z,23.40
2018-05-01T09:46:38.599Z,23.80
2018-05-01T09:49:05.692Z,23.80
2018-05-01T09:51:32.752Z,23.60
2018-05-01T09:54:00.319Z,23.90
2018-05-01T09:56:27.899Z,23.90
2018-05-01T09:58:56.253Z,24.40
2018-05-01T10:01:23.844Z,24.40
2018-05-01T10:03:51.521Z,24.20
2018-05-01T10:06:19.900Z,23.30
2018-05-01T10:08:48.275Z,23.80
2018-05-01T10:11:17.773Z,23.70
2018-05-01T10:13:46.095Z,23.40
2018-05-01T10:16:13.683Z,23.40
2018-05-01T10:18:41.247Z,22.60
2018-05-01T10:21:09.317Z,22.70
2018-05-01T10:23:37.850Z,23.00
2018-05-01T10:26:05.414Z,22.90
2018-05-01T10:28:33.013Z,22.80
2018-05-01T10:31:02.990Z,22.90
2018-05-01T10:33:30.556Z,22.90
2018-05-01T10:35:58.101Z,23.80
2018-05-01T10:38:25.902Z,23.60
2018-05-01T10:40:53.449Z,23.50
2018-05-01T10:43:21.002Z,23.90
2018-05-01T10:45:48.586Z,24.50
2018-05-01T10:48:17.524Z,24.50
2018-05-01T10:50:45.112Z,24.60
2018-05-01T10:53:12.633Z,24.10
2018-05-01T10:55:41.011Z,23.20
2018-05-01T10:58:09.310Z,22.90
2018-05-01T11:00:36.907Z,22.90
2018-05-01T11:03:04.496Z,22.50
2018-05-01T11:05:32.043Z,22.20
2018-05-01T11:07:59.594Z,22.00
2018-05-01T11:10:27.136Z,20.70
2018-05-01T11:12:54.668Z,20.80
2018-05-01T11:15:22.207Z,21.20
2018-05-01T11:17:50.510Z,20.00
2018-05-01T11:20:18.066Z,20.00
2018-05-01T11:22:45.579Z,19.90
2018-05-01T11:25:13.813Z,19.70
2018-05-01T11:27:41.370Z,19.30
2018-05-01T11:30:08.934Z,19.10
2018-05-01T11:32:36.519Z,19.10
2018-05-01T11:35:04.079Z,18.30
2018-05-01T11:37:31.640Z,18.50
2018-05-01T11:39:59.161Z,18.50
2018-05-01T11:42:26.687Z,18.80
2018-05-01T11:44:55.024Z,19.70
2018-05-01T11:47:22.574Z,19.60
2018-05-01T11:49:50.112Z,19.80
2018-05-01T11:52:17.695Z,19.20
2018-05-01T11:54:45.246Z,19.20
2018-05-01T11:57:12.779Z,19.00
2018-05-01T11:59:40.381Z,19.40
2018-05-01T12:02:07.923Z,19.70
2018-05-01T12:04:36.126Z,19.90
2018-05-01T12:07:04.436Z,21.00
2018-05-01T12:09:32.765Z,20.90
2018-05-01T12:12:00.323Z,20.90
2018-05-01T12:14:27.874Z,21.00
2018-05-01T12:16:55.388Z,22.20
2018-05-01T12:19:24.373Z,23.60
2018-05-01T12:21:52.783Z,26.20
2018-05-01T12:24:21.698Z,26.10
2018-05-01T12:26:49.268Z,26.60
2018-05-01T12:29:17.003Z,26.30
2018-05-01T12:31:44.592Z,26.70
2018-05-01T12:34:12.127Z,26.20
2018-05-01T12:36:39.768Z,26.40
2018-05-01T12:39:08.075Z,27.70
2018-05-01T12:41:35.653Z,27.70
2018-05-01T12:44:03.195Z,27.60
2018-05-01T12:46:31.143Z,28.20
2018-05-01T12:48:58.729Z,25.70
2018-05-01T12:51:26.278Z,27.20
2018-05-01T12:53:53.967Z,27.80
2018-05-01T12:56:21.580Z,26.20
2018-05-01T12:58:49.114Z,26.80
2018-05-01T13:01:18.263Z,27.70
2018-05-01T13:03:45.808Z,27.70
2018-05-01T13:06:13.337Z,25.90
2018-05-01T13:08:40.992Z,25.00
2018-05-01T13:11:08.558Z,24.30
2018-05-01T13:13:36.146Z,23.50
2018-05-01T13:16:03.664Z,22.90
2018-05-01T13:18:31.998Z,23.80
2018-05-01T13:20:59.515Z,23.80
2018-05-01T13:23:27.080Z,24.10
2018-05-01T13:25:54.616Z,24.40
2018-05-01T13:28:22.899Z,21.80
2018-05-01T13:30:50.476Z,21.70
2018-05-01T13:33:18.033Z,21.90
2018-05-01T13:35:45.600Z,22.20
2018-05-01T13:38:13.127Z,21.90
2018-05-01T13:40:41.453Z,19.90
2018-05-01T13:43:09.000Z,19.90
2018-05-01T13:45:36.574Z,18.90
2018-05-01T13:48:04.133Z,19.50
2018-05-01T13:50:31.780Z,20.30
2018-05-01T13:52:59.254Z,20.80
2018-05-01T13:55:26.836Z,21.10
2018-05-01T13:57:54.376Z,21.30
2018-05-01T14:00:21.933Z,21.50
2018-05-01T14:02:49.446Z,21.80
2018-05-01T14:05:17.028Z,20.70
2018-05-01T14:07:44.578Z,21.10
2018-05-01T14:10:12.150Z,21.20
2018-05-01T14:12:39.722Z,20.40
2018-05-01T14:15:07.272Z,20.30
2018-05-01T14:17:34.882Z,20.40
2018-05-01T14:20:03.171Z,20.10
2018-05-01T14:22:31.582Z,20.60
2018-05-01T14:24:59.099Z,20.60
2018-05-01T14:27:27.398Z,20.90
2018-05-01T14:29:54.913Z,20.90
2018-05-01T14:32:22.475Z,20.60
2018-05-01T14:34:50.040Z,20.80
2018-05-01T14:37:17.587Z,20.80
2018-05-01T14:39:45.140Z,21.00
2018-05-01T14:42:12.714Z,21.00
2018-05-01T14:44:40.307Z,21.10
2018-05-01T14:47:07.848Z,20.70
2018-05-01T14:49:36.169Z,20.40
2018-05-01T14:52:03.739Z,20.40
2018-05-01T14:54:31.378Z,20.40
2018-05-01T14:56:59.039Z,20.30
2018-05-01T14:59:26.563Z,20.20
2018-05-01T15:01:54.148Z,20.20
2018-05-01T15:04:21.704Z,20.20
2018-05-01T15:06:50.514Z,20.10
2018-05-01T15:09:18.155Z,20.00
2018-05-01T15:11:45.721Z,19.80
2018-05-01T15:14:13.276Z,19.20
2018-05-01T15:16:40.789Z,19.40
2018-05-01T15:19:08.434Z,19.50
2018-05-01T15:21:35.988Z,19.40
2018-05-01T15:24:03.524Z,18.60
2018-05-01T15:26:31.039Z,18.80
2018-05-01T15:28:59.356Z,18.90
2018-05-01T15:31:26.900Z,18.80
2018-05-01T15:33:54.451Z,18.80
2018-05-01T15:36:22.114Z,18.80
2018-05-01T15:38:50.417Z,18.40
2018-05-01T15:41:19.636Z,18.40
2018-05-01T15:43:48.532Z,18.40
2018-05-01T15:46:16.523Z,18.40
2018-05-01T15:48:44.048Z,18.60
2018-05-01T15:51:11.601Z,18.60
2018-05-01T15:53:39.138Z,18.10
2018-05-01T15:56:06.748Z,18.30
2018-05-01T15:58:34.292Z,17.60
2018-05-01T16:01:01.897Z,17.80
2018-05-01T16:03:29.491Z,17.70
2018-05-01T16:05:57.023Z,17.40
2018-05-01T16:08:24.601Z,17.20
2018-05-01T16:10:52.158Z,17.00
2018-05-01T16:13:19.704Z,17.00
2018-05-01T16:15:47.244Z,16.90
2018-05-01T16:18:15.658Z,16.50
2018-05-01T16:20:43.234Z,16.50
2018-05-01T16:23:10.777Z,16.50
2018-05-01T16:25:38.331Z,16.60
2018-05-01T16:28:05.914Z,16.40
2018-05-01T16:30:33.503Z,16.60
2018-05-01T16:33:01.086Z,16.50
2018-05-01T16:35:29.464Z,16.40
2018-05-01T16:37:57.055Z,16.40
2018-05-01T16:40:24.708Z,16.40
2018-05-01T16:42:52.222Z,16.30
2018-05-01T16:45:19.800Z,16.20
2018-05-01T16:47:49.585Z,16.40
2018-05-01T16:50:17.107Z,16.40
2018-05-01T16:52:44.692Z,16.30
2018-05-01T16:55:12.248Z,16.40
2018-05-01T16:57:39.795Z,16.50
2018-05-01T17:00:07.347Z,16.50
2018-05-01T17:02:34.906Z,16.60
2018-05-01T17:05:02.424Z,16.50
2018-05-01T17:07:30.788Z,16.50
2018-05-01T17:09:59.109Z,16.40
2018-05-01T17:12:26.762Z,16.40
2018-05-01T17:14:54.323Z,16.50
2018-05-01T17:17:21.873Z,16.40
2018-05-01T17:19:50.547Z,16.30
2018-05-01T17:22:18.154Z,16.30
2018-05-01T17:24:45.711Z,16.20
2018-05-01T17:27:13.272Z,16.10
2018-05-01T17:29:40.846Z,16.10
2018-05-01T17:32:08.432Z,16.10
2018-05-01T17:34:36.886Z,16.00
2018-05-01T17:37:05.580Z,16.00
2018-05-01T17:39:33.254Z,15.90
2018-05-01T17:42:00.847Z,15.90
2018-05-01T17:44:28.498Z,15.90
2018-05-01T17:46:56.815Z,15.70
2018-05-01T17:49:24.352Z,15.70
2018-05-01T17:51:51.910Z,15.60
2018-05-01T17:54:19.422Z,15.50
2018-05-01T17:56:47.047Z,15.50
2018-05-01T17:59:14.667Z,15.40
2018-05-01T18:01:42.960Z,15.10
2018-05-01T18:04:10.562Z,15.10
2018-05-01T18:06:38.102Z,15.00
2018-05-01T18:09:05.645Z,15.00
2018-05-01T18:11:33.228Z,14.90
2018-05-01T18:14:00.793Z,14.90
2018-05-01T18:16:28.405Z,14.80
2018-05-01T18:18:56.021Z,14.70
2018-05-01T18:21:23.560Z,14.70
2018-05-01T18:23:51.094Z,14.60
2018-05-01T18:26:18.640Z,14.60
2018-05-01T18:28:46.245Z,14.50
2018-05-01T18:31:13.804Z,14.60
2018-05-01T18:33:41.413Z,14.60
2018-05-01T18:36:09.784Z,14.60
2018-05-01T18:38:37.359Z,14.60
2018-05-01T18:41:04.899Z,14.60
2018-05-01T18:43:32.495Z,14.60
2018-05-01T18:46:00.090Z,14.60
2018-05-01T18:48:27.624Z,14.60
2018-05-01T18:50:55.245Z,14.70
2018-05-01T18:53:22.831Z,14.70
2018-05-01T18:55:50.445Z,14.70
2018-05-01T18:58:19.579Z,14.70
2018-05-01T19:00:47.188Z,14.70
2018-05-01T19:03:14.707Z,14.60
2018-05-01T19:05:42.786Z,14.60
2018-05-01T19:08:10.345Z,14.70
2018-05-01T19:10:37.870Z,14.60
2018-05-01T19:13:05.430Z,14.50
2018-05-01T19:15:33.764Z,14.40
2018-05-01T19:18:01.360Z,14.40
2018-05-01T19:20:30.148Z,14.40
2018-05-01T19:22:57.717Z,14.40
2018-05-01T19:25:25.307Z,14.40
2018-05-01T19:27:52.842Z,14.40
2018-05-01T19:30:20.424Z,14.30
2018-05-01T19:32:47.952Z,14.40
2018-05-01T19:35:15.520Z,14.40
2018-05-01T19:37:43.084Z,14.30
2018-05-01T19:40:10.693Z,14.20
2018-05-01T19:42:38.290Z,14.10
2018-05-01T19:45:06.619Z,13.90
2018-05-01T19:47:34.195Z,13.90
2018-05-01T19:50:01.787Z,13.80
2018-05-01T19:52:30.124Z,13.70
2018-05-01T19:54:58.274Z,13.60
2018-05-01T19:57:25.849Z,13.50
2018-05-01T19:59:53.393Z,13.60
2018-05-01T20:02:20.948Z,13.60
2018-05-01T20:04:48.486Z,13.40
2018-05-01T20:07:16.019Z,13.30
2018-05-01T20:09:44.363Z,13.20
2018-05-01T20:12:11.925Z,13.20
2018-05-01T20:14:40.255Z,13.10
2018-05-01T20:17:07.797Z,13.10
2018-05-01T20:19:36.139Z,13.00
2018-05-01T20:22:03.673Z,12.90
2018-05-01T20:24:31.208Z,12.90
2018-05-01T20:26:59.985Z,12.80
2018-05-01T20:29:29.824Z,12.80
2018-05-01T20:31:57.366Z,12.80
2018-05-01T20:34:24.933Z,12.70
2018-05-01T20:36:52.525Z,12.70
2018-05-01T20:39:21.315Z,12.70
2018-05-01T20:41:48.876Z,12.60
2018-05-01T20:44:18.720Z,12.50
2018-05-01T20:46:46.270Z,12.50
2018-05-01T20:49:14.596Z,12.40
2018-05-01T20:51:42.160Z,12.40
2018-05-01T20:54:09.750Z,12.40
2018-05-01T20:56:37.349Z,12.40
2018-05-01T20:59:04.884Z,12.40
2018-05-01T21:01:32.415Z,12.40
2018-05-01T21:03:59.978Z,12.40
2018-05-01T21:06:27.506Z,12.40
2018-05-01T21:08:55.041Z,12.30
2018-05-01T21:11:24.287Z,12.30
2018-05-01T21:13:51.826Z,12.30
2018-05-01T21:16:20.155Z,12.20
2018-05-01T21:18:47.678Z,12.10
2018-05-01T21:21:15.251Z,12.10
2018-05-01T21:23:42.786Z,12.10
2018-05-01T21:26:10.378Z,12.00
2018-05-01T21:28:38.009Z,12.00
2018-05-01T21:31:05.535Z,11.90
2018-05-01T21:33:33.837Z,11.80
2018-05-01T21:36:02.368Z,11.80
2018-05-01T21:38:29.903Z,11.80
2018-05-01T21:40:57.438Z,11.70
2018-05-01T21:43:24.988Z,11.70
2018-05-01T21:45:52.495Z,11.70
2018-05-01T21:48:20.062Z,11.70
2018-05-01T21:50:47.627Z,11.70
2018-05-01T21:53:15.957Z,11.60
2018-05-01T21:55:43.492Z,11.60
2018-05-01T21:58:11.021Z,11.60
2018-05-01T22:00:38.568Z,11.60
2018-05-01T22:03:06.113Z,11.60
2018-05-01T22:05:33.677Z,11.70
2018-05-01T22:08:01.198Z,11.70
2018-05-01T22:10:28.719Z,11.70
2018-05-01T22:12:56.244Z,11.70
2018-05-01T22:15:23.806Z,11.70
2018-05-01T22:17:51.418Z,11.80
2018-05-01T22:20:18.943Z,11.70
2018-05-01T22:22:46.511Z,11.80
2018-05-01T22:25:14.063Z,11.70
2018-05-01T22:27:41.602Z,11.70
2018-05-01T22:30:09.119Z,11.60
2018-05-01T22:32:36.689Z,11.70
2018-05-01T22:35:04.223Z,11.70
2018-05-01T22:37:32.539Z,11.70
2018-05-01T22:40:00.098Z,11.60
2018-05-01T22:42:28.383Z,11.70
2018-05-01T22:44:55.942Z,11.70
2018-05-01T22:47:25.497Z,11.70
2018-05-01T22:49:53.788Z,11.70
2018-05-01T22:52:21.848Z,11.70
2018-05-01T22:54:49.411Z,11.60
2018-05-01T22:57:16.956Z,11.60
2018-05-01T22:59:46.304Z,11.60
2018-05-01T23:02:13.879Z,11.60
2018-05-01T23:04:41.378Z,11.70
2018-05-01T23:07:09.678Z,11.60
2018-05-01T23:09:37.277Z,11.60
2018-05-01T23:12:05.389Z,11.60
2018-05-01T23:14:33.679Z,11.60
2018-05-01T23:17:01.221Z,11.50
2018-05-01T23:19:29.545Z,11.50
2018-05-01T23:21:57.067Z,11.50
2018-05-01T23:24:24.623Z,11.50
2018-05-01T23:26:52.900Z,11.50
2018-05-01T23:29:20.462Z,11.50
2018-05-01T23:31:47.995Z,11.50
2018-05-01T23:34:16.291Z,11.50
2018-05-01T23:36:44.688Z,11.40
2018-05-01T23:39:12.551Z,11.40
2018-05-01T23:41:40.099Z,11.40
2018-05-01T23:44:07.619Z,11.40
2018-05-01T23:46:35.272Z,11.40
2018-05-01T23:49:02.825Z,11.40
2018-05-01T23:51:31.859Z,11.40
2018-05-01T23:54:00.149Z,11.40
2018-05-01T23:56:27.676Z,11.40
2018-05-01T23:58:55.198Z,11.40
